Time;durP1;ratioP1;P1;durP2;ratioP2;P2;SDS_P1;SDS_P2;PMS_P1;PMS_P2;Temp;Humidity;BMP_temperature;BMP_pressure;BME280_temperature;BME280_humidity;BME280_pressure;Samples;Min_cycle;Max_cycle;Signal;HPM_P1;HPM_P2
2022/10/28 00:06:37;;;;;;;;;;;;;;;;;;;;;
2022/10/28 00:12:26;;;;;;;11.00;4.77;;;18.80;99.90;;;;;;4983087;28;20495;-84
2022/10/28 00:15:36;;;;;;;11.10;5.00;;;19.00;99.90;;;;;;4935394;28;20448;-83
2022/10/28 00:21:27;;;;;;;9.67;4.37;;;19.10;99.90;;;;;;5077969;23;20485;-82
2022/10/28 00:33:12;;;;;;;5.93;4.03;;;19.20;99.90;;;;;;5039237;28;20404;-84
2022/10/28 00:37:04;;;;;;;;;;;;;;;;;;;;;
2022/10/28 00:40:39;;;;;;;5.50;4.63;;;19.00;99.90;;;;;;5014347;23;20493;-82
2022/10/28 00:44:19;;;;;;;7.00;4.37;;;19.20;99.90;;;;;;4980644;28;20497;-84
2022/10/28 00:47:43;;;;;;;6.77;4.53;;;19.20;99.90;;;;;;4901013;29;21010;-84
2022/10/28 01:06:39;;;;;;;5.80;4.13;;;19.40;99.90;;;;;;4770396;29;20654;-84
2022/10/28 01:18:08;;;;;;;9.50;4.40;;;19.40;99.90;;;;;;4744639;30;20733;-84
2022/10/28 01:21:33;;;;;;;8.47;4.37;;;19.40;99.90;;;;;;4738601;30;20592;-84
2022/10/28 01:25:10;;;;;;;;;;;;;;;;;;;;;
2022/10/28 01:28:55;;;;;;;5.13;3.93;;;19.20;99.90;;;;;;4758466;30;20555;-86
2022/10/28 01:32:13;;;;;;;;;;;;;;;;;;;;;
2022/10/28 01:35:18;;;;;;;7.30;4.70;;;19.40;99.90;;;;;;4832454;29;20835;-85
2022/10/28 02:07:10;;;;;;;6.67;3.87;;;19.40;99.90;;;;;;4999419;28;20437;-84
2022/10/28 02:10:39;;;;;;;7.37;4.30;;;19.50;99.90;;;;;;4990426;28;20511;-82
2022/10/28 02:14:01;;;;;;;5.17;4.50;;;19.40;99.90;;;;;;4928295;28;20448;-83
2022/10/28 02:17:37;;;;;;;7.37;4.27;;;19.50;99.90;;;;;;4943570;28;20512;-81
2022/10/28 02:24:54;;;;;;;5.60;3.23;;;19.40;99.90;;;;;;4997286;28;20450;-83
2022/10/28 02:28:33;;;;;;;10.33;4.43;;;19.60;99.90;;;;;;5021220;28;20595;-83
2022/10/28 02:31:59;;;;;;;7.27;4.60;;;19.20;99.90;;;;;;4928477;29;20625;-80
2022/10/28 02:35:29;;;;;;;7.40;4.20;;;19.40;99.90;;;;;;4924736;28;20433;-85
2022/10/28 02:41:29;;;;;;;5.87;4.80;;;19.60;99.90;;;;;;5144829;23;20493;-84
2022/10/28 02:44:49;;;;;;;4.60;4.20;;;19.60;99.90;;;;;;5002140;28;20464;-85
2022/10/28 02:48:26;;;;;;;6.77;4.17;;;19.50;99.90;;;;;;4884652;29;20452;-83
2022/10/28 03:03:10;;;;;;;9.93;4.60;;;19.40;99.90;;;;;;4870232;29;20447;-84
2022/10/28 03:06:20;;;;;;;6.50;3.93;;;19.40;99.90;;;;;;4891572;29;20448;-82
2022/10/28 03:09:21;;;;;;;7.10;3.90;;;19.40;99.90;;;;;;4873922;29;20480;-83
2022/10/28 03:12:53;;;;;;;7.80;3.60;;;19.40;99.90;;;;;;4970254;28;20579;-85
2022/10/28 03:16:07;;;;;;;8.13;5.47;;;19.40;99.90;;;;;;4947340;28;20632;-86
2022/10/28 03:31:16;;;;;;;6.70;3.93;;;19.30;99.90;;;;;;5048887;23;20844;-85
2022/10/28 03:34:37;;;;;;;7.10;4.13;;;19.20;99.90;;;;;;5003929;28;20440;-83
2022/10/28 03:38:12;;;;;;;;;;;;;;;;;;;;;
2022/10/28 03:43:57;;;;;;;8.70;4.00;;;19.50;99.90;;;;;;5009715;23;20496;-83
2022/10/28 03:50:33;;;;;;;8.07;4.20;;;19.50;99.90;;;;;;4933577;28;20492;-85
2022/10/28 03:53:32;;;;;;;4.10;3.70;;;19.40;99.90;;;;;;4946202;28;20435;-84
2022/10/28 03:56:04;;;;;;;7.30;4.30;;;19.20;99.90;;;;;;4947387;28;20795;-83
2022/10/28 03:58:58;;;;;;;6.00;3.73;;;19.20;99.90;;;;;;4952322;28;20448;-83
2022/10/28 04:02:33;;;;;;;10.73;4.33;;;19.20;99.90;;;;;;4935697;28;20535;-84
2022/10/28 04:05:35;;;;;;;8.43;4.27;;;19.10;99.90;;;;;;4874018;29;20461;-85
2022/10/28 04:12:13;;;;;;;12.97;4.47;;;19.20;99.90;;;;;;4944980;28;20515;-82
2022/10/28 04:15:05;;;;;;;9.90;4.37;;;19.00;99.90;;;;;;4960665;28;20471;-84
2022/10/28 04:18:05;;;;;;;10.10;5.03;;;19.10;99.90;;;;;;4985917;28;20444;-83
2022/10/28 04:24:30;;;;;;;7.33;4.23;;;19.20;99.90;;;;;;5010224;28;20437;-85
2022/10/28 04:27:11;;;;;;;11.97;4.10;;;19.10;99.90;;;;;;4997792;28;20454;-84
2022/10/28 04:29:51;;;;;;;12.97;5.30;;;19.00;99.90;;;;;;4982230;28;20461;-85
2022/10/28 04:32:59;;;;;;;8.70;4.13;;;18.90;99.90;;;;;;5009872;28;20465;-83
2022/10/28 04:36:02;;;;;;;12.47;4.40;;;18.90;99.90;;;;;;5005698;28;20461;-83
2022/10/28 04:38:57;;;;;;;;;;;;;;;;;;;;;
2022/10/28 04:42:01;;;;;;;6.53;4.10;;;18.90;99.90;;;;;;5001140;28;20470;-83
2022/10/28 04:44:41;;;;;;;5.10;3.73;;;18.90;99.90;;;;;;5004561;28;20465;-85
2022/10/28 04:50:51;;;;;;;;;;;;;;;;;;;;;
2022/10/28 04:54:01;;;;;;;9.30;4.87;;;18.80;99.90;;;;;;5020175;28;20456;-83
2022/10/28 04:56:49;;;;;;;8.83;4.77;;;18.80;99.90;;;;;;5020005;28;20950;-84
2022/10/28 04:59:59;;;;;;;4.70;3.53;;;18.90;99.90;;;;;;5006424;28;20481;-82
2022/10/28 05:02:49;;;;;;;7.60;4.53;;;18.90;99.90;;;;;;4989277;28;20457;-85
2022/10/28 05:05:46;;;;;;;11.07;4.53;;;18.80;99.90;;;;;;5007069;28;20458;-84
2022/10/28 05:08:47;;;;;;;;;;;;;;;;;;;;;
2022/10/28 05:11:28;;;;;;;8.20;4.20;;;18.80;99.90;;;;;;5020111;28;20463;-85
2022/10/28 05:14:26;;;;;;;10.70;4.80;;;18.70;99.90;;;;;;5020233;28;21282;-84
2022/10/28 05:17:40;;;;;;;14.73;5.07;;;18.80;99.90;;;;;;5020660;28;20460;-84
2022/10/28 05:20:54;;;;;;;6.50;4.90;;;18.80;99.90;;;;;;5033648;23;20499;-86
2022/10/28 05:23:42;;;;;;;12.73;5.00;;;18.70;99.90;;;;;;5000319;28;20479;-84
2022/10/28 05:27:11;;;;;;;18.43;5.10;;;18.70;99.90;;;;;;5003786;28;20528;-84
2022/10/28 05:30:11;;;;;;;8.57;4.13;;;18.70;99.90;;;;;;5005710;28;20490;-85
2022/10/28 05:33:33;;;;;;;11.27;4.93;;;18.70;99.90;;;;;;4967538;28;20506;-83
2022/10/28 05:36:49;;;;;;;9.07;4.70;;;18.70;99.90;;;;;;4918626;29;20446;-82
2022/10/28 05:40:00;;;;;;;11.57;6.30;;;18.80;99.90;;;;;;5142679;23;20486;-84
2022/10/28 05:43:19;;;;;;;6.47;4.40;;;18.60;99.90;;;;;;5007084;28;20469;-85
2022/10/28 05:46:55;;;;;;;7.50;4.57;;;18.70;99.90;;;;;;5002739;28;20476;-82
2022/10/28 05:49:52;;;;;;;9.57;4.53;;;18.70;99.90;;;;;;5031452;23;20675;-85
2022/10/28 05:53:43;;;;;;;;;;;;;;;;;;;;;
2022/10/28 05:56:54;;;;;;;7.50;5.00;;;18.70;99.90;;;;;;5022248;28;20506;-84
2022/10/28 06:03:13;;;;;;;;;;;;;;;;;;;;;
2022/10/28 06:09:54;;;;;;;8.97;4.73;;;18.80;99.90;;;;;;5017615;28;20511;-84
2022/10/28 06:12:59;;;;;;;9.03;4.30;;;18.70;99.90;;;;;;5013302;28;20761;-86
2022/10/28 06:15:43;;;;;;;7.20;4.30;;;18.70;99.90;;;;;;5036893;28;20457;-85
2022/10/28 06:18:38;;;;;;;11.33;4.90;;;18.80;99.90;;;;;;5016966;28;20467;-84
2022/10/28 06:21:39;;;;;;;9.63;6.50;;;18.90;99.90;;;;;;5010394;28;20502;-84
2022/10/28 06:24:36;;;;;;;8.07;4.27;;;18.70;99.90;;;;;;5005420;28;20452;-85
2022/10/28 06:27:39;;;;;;;10.57;4.80;;;18.80;99.90;;;;;;5002975;28;20479;-84
2022/10/28 06:31:07;;;;;;;14.10;4.80;;;18.90;99.90;;;;;;5007006;28;20824;-84
2022/10/28 06:34:21;;;;;;;6.83;4.40;;;18.70;99.90;;;;;;5020901;28;20538;-85
2022/10/28 06:37:44;;;;;;;;;;;;;;;;;;;;;
2022/10/28 06:41:07;;;;;;;10.00;4.67;;;18.60;99.90;;;;;;5012890;23;21059;-85
2022/10/28 06:43:59;;;;;;;12.50;5.37;;;18.80;99.90;;;;;;4991589;28;20449;-84
2022/10/28 06:46:54;;;;;;;7.63;4.27;;;18.70;99.90;;;;;;4991652;28;20472;-85
2022/10/28 06:54:01;;;;;;;6.20;4.07;;;18.90;99.90;;;;;;4911622;29;20957;-84
2022/10/28 06:57:04;;;;;;;13.37;4.23;;;18.90;99.90;;;;;;4838487;29;20473;-83
2022/10/28 06:59:52;;;;;;;8.17;4.30;;;19.00;99.90;;;;;;4901315;23;20592;-85
2022/10/28 07:03:33;;;;;;;;;;;;;;;;;;;;;
2022/10/28 07:13:46;;;;;;;;;;;;;;;;;;;;;
2022/10/28 07:17:11;;;;;;;10.73;4.50;;;19.10;99.90;;;;;;4893067;29;20443;-85
2022/10/28 07:28:30;;;;;;;;;;;;;;;;;;;;;
2022/10/28 07:32:13;;;;;;;10.80;4.57;;;19.70;99.90;;;;;;5087582;23;20491;-84
2022/10/28 07:35:31;;;;;;;6.50;3.67;;;19.40;99.90;;;;;;5011025;28;20453;-85
2022/10/28 07:39:38;;;;;;;;;;;;;;;;;;;;;
2022/10/28 07:43:30;;;;;;;8.60;4.50;;;19.60;99.90;;;;;;4984129;28;20813;-82
2022/10/28 07:46:26;;;;;;;10.10;4.57;;;19.30;99.90;;;;;;4933190;28;20907;-83
2022/10/28 07:50:01;;;;;;;10.33;4.60;;;19.40;99.90;;;;;;4992953;23;20508;-84
2022/10/28 07:53:44;;;;;;;;;;;;;;;;;;;;;
2022/10/28 07:56:49;;;;;;;6.97;5.20;;;20.00;99.90;;;;;;4955444;28;20742;-83
2022/10/28 08:00:18;;;;;;;;;;;;;;;;;;;;;
2022/10/28 08:03:57;;;;;;;;;;;;;;;;;;;;;
2022/10/28 08:07:16;;;;;;;10.33;5.70;;;19.80;99.90;;;;;;4959342;28;20428;-84
2022/10/28 08:10:30;;;;;;;6.07;4.30;;;19.70;99.90;;;;;;5088649;23;20552;-83
2022/10/28 08:13:33;;;;;;;11.70;4.90;;;19.70;99.90;;;;;;5013027;28;21744;-85
2022/10/28 08:17:17;;;;;;;5.90;4.43;;;19.90;99.90;;;;;;4965554;28;20453;-84
2022/10/28 08:20:13;;;;;;;10.27;4.60;;;20.10;99.90;;;;;;5018260;28;20483;-84
2022/10/28 08:23:45;;;;;;;;;;;;;;;;;;;;;
2022/10/28 08:27:59;;;;;;;9.03;4.97;;;20.00;99.90;;;;;;4927653;28;20449;-83
2022/10/28 08:35:05;;;;;;;;;;;;;;;;;;;;;
2022/10/28 08:38:34;;;;;;;;;;;;;;;;;;;;;
2022/10/28 08:46:07;;;;;;;8.77;5.03;;;20.20;99.40;;;;;;5015552;28;20454;-84
2022/10/28 08:52:58;;;;;;;;;;;;;;;;;;;;;
2022/10/28 08:56:25;;;;;;;13.93;4.90;;;20.50;98.90;;;;;;4946252;29;20430;-85
2022/10/28 09:00:09;;;;;;;;;;;;;;;;;;;;;
2022/10/28 09:34:37;;;;;;;5.80;4.13;;;21.20;97.70;;;;;;4961803;28;21110;-83
2022/10/28 09:41:16;;;;;;;7.37;4.03;;;22.80;94.20;;;;;;4939923;28;20506;-85
2022/10/28 09:44:47;;;;;;;8.33;4.20;;;22.80;94.00;;;;;;4897634;28;20472;-83
2022/10/28 09:47:43;;;;;;;7.47;4.30;;;22.80;94.20;;;;;;4934015;28;20467;-84
2022/10/28 09:51:09;;;;;;;;;;;;;;;;;;;;;
2022/10/28 09:54:19;;;;;;;10.40;3.10;;;23.70;93.20;;;;;;4941308;28;20454;-85
2022/10/28 09:57:20;;;;;;;5.07;3.37;;;23.80;93.00;;;;;;4959209;28;20949;-86
2022/10/28 10:00:10;;;;;;;15.03;4.30;;;23.10;93.10;;;;;;4958498;28;21061;-86
2022/10/28 10:03:31;;;;;;;10.07;4.50;;;22.90;93.80;;;;;;4950907;28;20577;-85
2022/10/28 10:06:58;;;;;;;7.03;3.83;;;22.60;94.50;;;;;;4970777;28;20500;-84
2022/10/28 10:10:32;;;;;;;;;;;;;;;;;;;;;
2022/10/28 10:13:21;;;;;;;8.60;4.33;;;22.50;94.80;;;;;;4949060;28;20535;-84
2022/10/28 10:16:14;;;;;;;7.07;3.90;;;22.60;94.90;;;;;;4963883;28;20463;-84
2022/10/28 10:19:14;;;;;;;10.73;4.13;;;22.70;94.60;;;;;;4965553;28;20498;-84
2022/10/28 10:27:18;;;;;;;4.77;3.50;;;22.80;94.80;;;;;;4850997;29;21065;-84
2022/10/28 10:31:17;;;;;;;9.40;3.90;;;22.80;95.20;;;;;;4794865;29;20474;-84
2022/10/28 10:48:12;;;;;;;8.73;4.13;;;23.20;94.70;;;;;;4907937;29;21248;-83
2022/10/28 11:00:00;;;;;;;10.17;5.03;;;23.00;94.60;;;;;;4999825;23;20487;-84
2022/10/28 11:03:35;;;;;;;9.77;4.73;;;23.20;94.80;;;;;;4989977;28;20533;-84
2022/10/28 11:07:07;;;;;;;12.50;4.53;;;23.20;94.70;;;;;;4935477;28;20457;-82
2022/10/28 11:10:45;;;;;;;;;;;;;;;;;;;;;
2022/10/28 11:47:35;;;;;;;7.37;4.20;;;24.20;93.30;;;;;;4908229;29;20497;-84
2022/10/28 11:50:39;;;;;;;5.40;3.53;;;24.10;92.80;;;;;;4931240;29;20483;-84
2022/10/28 11:54:04;;;;;;;;;;;;;;;;;;;;;
2022/10/28 12:01:42;;;;;;;6.37;3.60;;;24.70;92.10;;;;;;4901881;29;20614;-85
2022/10/28 12:04:56;;;;;;;10.70;4.43;;;24.90;91.30;;;;;;4908588;29;20473;-84
2022/10/28 12:07:58;;;;;;;6.90;3.10;;;24.90;90.20;;;;;;4910204;29;20488;-85
2022/10/28 12:11:28;;;;;;;12.73;5.40;;;25.00;90.30;;;;;;4944838;28;20517;-85
2022/10/28 12:18:23;;;;;;;9.97;4.10;;;25.00;88.40;;;;;;4993716;28;20533;-84
2022/10/28 12:21:56;;;;;;;9.50;3.70;;;25.30;87.20;;;;;;4988692;28;20486;-84
2022/10/28 12:26:02;;;;;;;9.80;4.00;;;25.50;83.90;;;;;;4918577;29;20473;-85
2022/10/28 12:29:16;;;;;;;9.40;3.90;;;25.40;84.80;;;;;;4921107;29;20500;-84
2022/10/28 12:36:27;;;;;;;11.33;3.53;;;25.50;84.90;;;;;;4846848;29;20550;-84
2022/10/28 12:43:47;;;;;;;7.13;3.80;;;25.40;83.00;;;;;;4886115;29;21076;-86
2022/10/28 12:51:15;;;;;;;10.40;3.50;;;25.30;82.00;;;;;;4847043;29;20636;-85
2022/10/28 12:54:38;;;;;;;5.40;3.20;;;25.40;81.00;;;;;;4849376;29;20468;-84
2022/10/28 12:57:29;;;;;;;7.77;4.43;;;25.50;80.80;;;;;;4852751;29;20500;-85
2022/10/28 13:00:33;;;;;;;17.23;3.77;;;25.40;80.80;;;;;;4833994;29;20509;-85
2022/10/28 13:07:54;;;;;;;;;;;;;;;;;;;;;
2022/10/28 13:11:18;;;;;;;12.53;3.63;;;25.70;78.50;;;;;;4852071;29;21102;-85
2022/10/28 13:14:36;;;;;;;10.67;4.30;;;25.70;78.50;;;;;;4845710;29;20517;-84
2022/10/28 13:18:38;;;;;;;12.27;4.20;;;25.90;77.60;;;;;;4801212;29;20454;-82
2022/10/28 13:22:18;;;;;;;10.47;4.03;;;25.20;79.90;;;;;;4782820;30;20492;-83
2022/10/28 13:25:54;;;;;;;;;;;;;;;;;;;;;
2022/10/28 13:29:05;;;;;;;;;;;;;;;;;;;;;
2022/10/28 13:32:59;;;;;;;;;;;;;;;;;;;;;
2022/10/28 13:36:37;;;;;;;8.03;3.87;;;25.60;78.90;;;;;;4847137;29;20431;-83
2022/10/28 13:40:29;;;;;;;10.57;3.83;;;25.70;78.90;;;;;;4833550;29;21555;-85
2022/10/28 13:48:17;;;;;;;;;;;;;;;;;;;;;
2022/10/28 14:02:23;;;;;;;9.03;3.83;;;25.70;78.60;;;;;;4964375;28;20558;-85
2022/10/28 14:09:29;;;;;;;9.50;3.67;;;25.60;79.20;;;;;;4965648;28;20447;-84
2022/10/28 14:12:53;;;;;;;6.77;4.00;;;25.50;80.10;;;;;;4919092;29;20444;-85
2022/10/28 14:16:35;;;;;;;7.80;4.07;;;25.50;80.00;;;;;;4927182;29;20422;-84
2022/10/28 14:19:53;;;;;;;12.30;4.20;;;25.40;80.80;;;;;;4936224;28;20478;-83
2022/10/28 14:22:36;;;;;;;8.00;3.90;;;25.30;80.90;;;;;;4968948;28;20482;-84
2022/10/28 14:25:56;;;;;;;14.93;4.37;;;25.30;81.40;;;;;;4995798;28;20438;-83
2022/10/28 14:32:30;;;;;;;11.50;4.87;;;25.20;81.30;;;;;;5020981;23;20518;-83
2022/10/28 14:36:35;;;;;;;9.87;5.03;;;25.30;81.50;;;;;;4870460;29;20851;-84
2022/10/28 14:40:09;;;;;;;10.57;4.47;;;25.20;81.60;;;;;;4863656;29;20475;-84
2022/10/28 14:43:18;;;;;;;8.53;5.00;;;25.10;82.10;;;;;;4864892;29;20491;-85
2022/10/28 14:46:53;;;;;;;14.47;4.23;;;25.00;82.60;;;;;;4865409;29;20465;-83
2022/10/28 14:50:00;;;;;;;;;;;;;;;;;;;;;
2022/10/28 14:53:00;;;;;;;7.57;3.83;;;24.90;83.80;;;;;;4973742;28;20491;-84
2022/10/28 14:59:58;;;;;;;;;;;;;;;;;;;;;
2022/10/28 15:02:47;;;;;;;10.20;4.10;;;24.90;84.00;;;;;;5018084;28;20571;-83
2022/10/28 15:05:57;;;;;;;11.90;5.90;;;24.70;84.90;;;;;;5037615;28;20467;-84
2022/10/28 15:12:21;;;;;;;6.93;4.07;;;24.60;86.20;;;;;;4992213;28;20504;-84
2022/10/28 15:18:04;;;;;;;16.23;5.20;;;24.60;86.10;;;;;;4990094;28;20501;-85
2022/10/28 15:20:35;;;;;;;10.60;5.27;;;24.50;86.90;;;;;;4960158;28;21584;-83
2022/10/28 15:23:17;;;;;;;13.10;5.30;;;24.40;87.20;;;;;;4973368;28;20439;-85
2022/10/28 15:26:46;;;;;;;15.37;5.93;;;24.40;88.00;;;;;;4942175;28;20463;-84
2022/10/28 15:29:24;;;;;;;9.70;6.07;;;24.20;88.90;;;;;;4943959;28;20537;-83
2022/10/28 15:32:15;;;;;;;7.90;5.07;;;24.30;88.80;;;;;;4955762;28;20559;-82
2022/10/28 15:35:41;;;;;;;16.30;5.43;;;24.10;89.90;;;;;;4968554;28;20903;-83
2022/10/28 15:39:26;;;;;;;10.47;4.00;;;23.90;90.20;;;;;;4947032;28;20418;-83
2022/10/28 15:46:35;;;;;;;9.80;4.57;;;23.70;90.60;;;;;;5095905;23;20544;-85
2022/10/28 15:54:10;;;;;;;;;;;;;;;;;;;;;
2022/10/28 19:40:11;;;;;;;12.30;9.40;;;20.80;99.90;;;;;;4998577;28;20481;-82
2022/10/28 19:43:38;;;;;;;;;;;;;;;;;;;;;
2022/10/28 19:47:20;;;;;;;12.77;8.37;;;20.70;99.90;;;;;;4954282;28;20440;-83
2022/10/28 19:55:09;;;;;;;12.23;8.53;;;20.50;99.90;;;;;;4912891;29;20537;-84
2022/10/28 19:58:25;;;;;;;;;;;;;;;;;;;;;
2022/10/28 20:05:40;;;;;;;11.33;7.37;;;20.30;99.90;;;;;;4746105;30;20475;-82
2022/10/28 20:15:48;;;;;;;;;;;;;;;;;;;;;
2022/10/28 20:58:56;;;;;;;14.17;9.40;;;20.10;99.90;;;;;;4891415;29;20514;-84
2022/10/28 21:02:43;;;;;;;;;;;;;;;;;;;;;
2022/10/28 21:17:50;;;;;;;14.30;9.70;;;20.20;99.90;;;;;;4902166;29;20446;-83
2022/10/28 21:25:41;;;;;;;14.80;8.60;;;20.20;99.90;;;;;;4797226;29;20474;-83
2022/10/28 21:29:25;;;;;;;13.13;7.00;;;20.10;99.90;;;;;;4741748;30;21027;-82
2022/10/28 21:32:46;;;;;;;12.60;7.53;;;20.40;99.90;;;;;;4785246;29;20457;-83
2022/10/28 21:45:38;;;;;;;;;;;;;;;;;;;;;
2022/10/28 21:54:58;;;;;;;11.70;7.37;;;19.70;99.90;;;;;;5081555;23;20487;-83
2022/10/28 22:09:55;;;;;;;;;;;;;;;;;;;;;
2022/10/28 22:48:34;;;;;;;;;;;;;;;;;;;;;
2022/10/28 22:52:15;;;;;;;14.73;6.40;;;19.70;99.90;;;;;;4836330;29;20485;-84
2022/10/28 23:02:37;;;;;;;9.47;7.67;;;19.80;99.90;;;;;;4785805;29;20626;-82
2022/10/28 23:05:55;;;;;;;12.20;6.70;;;19.50;99.90;;;;;;4824144;29;21499;-83
2022/10/28 23:09:52;;;;;;;17.83;7.20;;;19.40;99.90;;;;;;4784249;29;20587;-84
2022/10/28 23:13:51;;;;;;;11.00;6.20;;;19.30;99.90;;;;;;4776731;29;20475;-83
2022/10/28 23:16:47;;;;;;;14.07;7.53;;;19.50;99.90;;;;;;4735217;30;20458;-83
2022/10/28 23:20:10;;;;;;;9.67;6.77;;;19.50;99.90;;;;;;4708784;30;20491;-83
2022/10/28 23:23:38;;;;;;;;;;;;;;;;;;;;;
2022/10/28 23:30:44;;;;;;;;;;;;;;;;;;;;;
2022/10/28 23:34:13;;;;;;;9.70;7.07;;;19.10;99.90;;;;;;4966578;28;20449;-83
2022/10/28 23:37:30;;;;;;;;;;;;;;;;;;;;;
2022/10/28 23:43:13;;;;;;;11.43;7.33;;;19.10;99.90;;;;;;4972795;28;20506;-84
2022/10/28 23:46:14;;;;;;;15.07;7.33;;;19.50;99.90;;;;;;4949085;28;20462;-82
2022/10/28 23:52:56;;;;;;;13.97;8.03;;;19.20;99.90;;;;;;4919297;29;20483;-84
2022/10/28 23:56:30;;;;;;;10.27;7.20;;;19.10;99.90;;;;;;4816675;29;20480;-84
2022/10/28 23:59:56;;;;;;;11.67;6.70;;;19.00;99.90;;;;;;4869085;29;20454;-84
